Time;durP1;ratioP1;P1;durP2;ratioP2;P2;SDS_P1;SDS_P2;PMS_P1;PMS_P2;Temp;Humidity;BMP_temperature;BMP_pressure;BME280_temperature;BME280_humidity;BME280_pressure;Samples;Min_cycle;Max_cycle;Signal;HPM_P1;HPM_P2
2022/08/03 00:00:13;;;;;;;1.10;0.90;;;19.70;54.10;21.70;94025.00;;;;10473594;28;45179;-63
2022/08/03 00:05:36;;;;;;;1.42;0.75;;;19.60;54.10;21.70;94029.00;;;;10474214;28;45603;-64
2022/08/03 00:10:56;;;;;;;1.08;0.60;;;19.70;54.30;21.70;94029.00;;;;10474078;28;45257;-64
2022/08/03 00:16:17;;;;;;;1.00;0.88;;;19.60;54.30;21.70;94022.00;;;;10472048;28;45164;-64
2022/08/03 00:21:39;;;;;;;0.90;0.60;;;19.60;54.30;21.70;94012.00;;;;10474296;28;45172;-64
2022/08/03 00:27:00;;;;;;;1.33;0.80;;;19.60;54.20;21.70;94015.00;;;;10489962;28;45206;-64
2022/08/03 00:32:21;;;;;;;1.38;0.82;;;19.60;54.30;21.70;94011.00;;;;10473029;28;45189;-64
2022/08/03 00:37:43;;;;;;;1.13;0.70;;;19.60;54.30;21.70;94013.00;;;;10479834;28;45191;-63
2022/08/03 00:43:06;;;;;;;1.27;0.80;;;19.60;54.20;21.60;94008.00;;;;10471847;28;45203;-64
2022/08/03 00:48:26;;;;;;;1.00;0.82;;;19.50;54.20;21.60;94011.00;;;;10473337;28;45133;-64
2022/08/03 00:53:49;;;;;;;1.50;0.80;;;19.60;54.10;21.60;94012.00;;;;10472000;28;45245;-64
2022/08/03 00:59:10;;;;;;;1.08;0.73;;;19.50;54.00;21.60;93998.00;;;;10468188;28;45303;-64
2022/08/03 01:04:31;;;;;;;1.08;0.68;;;19.50;53.80;21.60;94005.00;;;;10455341;28;45172;-65
2022/08/03 01:10:01;;;;;;;1.05;0.80;;;19.50;53.80;21.60;93996.00;;;;10471645;28;45189;-64
2022/08/03 01:15:29;;;;;;;1.35;0.73;;;19.50;53.80;21.60;94003.00;;;;10472039;28;45345;-64
2022/08/03 01:20:56;;;;;;;1.20;0.80;;;19.50;53.60;21.60;94003.00;;;;10471040;28;45231;-64
2022/08/03 01:26:51;;;;;;;1.50;0.73;;;19.50;53.60;21.50;94002.00;;;;10472724;28;45395;-64
2022/08/03 01:32:18;;;;;;;0.98;0.73;;;19.50;53.60;21.50;93999.00;;;;10471659;28;45295;-64
2022/08/03 01:37:43;;;;;;;1.05;0.70;;;19.50;53.40;21.50;93995.00;;;;10476248;28;45180;-64
2022/08/03 01:43:06;;;;;;;1.58;0.70;;;19.50;53.30;21.50;94000.00;;;;10469239;28;45248;-63
2022/08/03 01:48:28;;;;;;;0.75;0.60;;;19.40;53.40;21.50;93993.00;;;;10470775;28;45283;-63
2022/08/03 01:53:53;;;;;;;1.15;0.60;;;19.50;53.30;21.50;93979.00;;;;10470832;28;45376;-64
2022/08/03 01:59:16;;;;;;;0.90;0.73;;;19.40;53.30;21.50;94000.00;;;;10470252;28;45278;-63
2022/08/03 02:04:40;;;;;;;1.48;0.70;;;19.40;53.30;21.50;93998.00;;;;10469898;28;45145;-64
2022/08/03 02:10:04;;;;;;;1.10;0.60;;;19.40;53.40;21.50;93990.00;;;;10470489;28;45424;-63
2022/08/03 02:15:25;;;;;;;0.77;0.63;;;19.40;53.30;21.50;93974.00;;;;10469280;28;45221;-64
2022/08/03 02:20:49;;;;;;;1.33;0.80;;;19.40;53.40;21.50;93987.00;;;;10469455;28;45335;-63
2022/08/03 02:26:15;;;;;;;0.90;0.70;;;19.40;53.30;21.50;93989.00;;;;10469733;28;45242;-64
2022/08/03 02:31:37;;;;;;;1.67;0.68;;;19.40;53.40;21.50;93958.00;;;;10469609;28;45032;-64
2022/08/03 02:37:01;;;;;;;0.93;0.60;;;19.30;53.40;21.50;93982.00;;;;10475628;28;46212;-64
2022/08/03 02:42:23;;;;;;;1.10;0.77;;;19.30;53.50;21.50;93967.00;;;;10475182;28;45323;-64
2022/08/03 02:47:47;;;;;;;0.85;0.70;;;19.30;53.60;21.50;93977.00;;;;10476115;28;45234;-64
2022/08/03 02:53:11;;;;;;;1.17;0.80;;;19.30;53.70;21.40;93983.00;;;;10476299;28;45122;-64
2022/08/03 02:58:33;;;;;;;0.85;0.70;;;19.30;53.70;21.40;93983.00;;;;10475396;28;45227;-64
2022/08/03 03:03:57;;;;;;;1.00;0.80;;;19.30;53.90;21.40;93958.00;;;;10476191;28;45182;-64
2022/08/03 03:09:19;;;;;;;0.82;0.55;;;19.30;54.00;21.40;93970.00;;;;10475698;28;45156;-64
2022/08/03 03:14:40;;;;;;;1.00;0.70;;;19.30;54.00;21.40;93963.00;;;;10475832;28;45425;-64
2022/08/03 03:20:01;;;;;;;0.85;0.70;;;19.30;54.20;21.40;93962.00;;;;10475241;28;45117;-64
2022/08/03 03:25:24;;;;;;;1.58;1.00;;;19.30;54.30;21.40;93974.00;;;;10490827;28;45458;-64
2022/08/03 03:30:45;;;;;;;1.02;0.80;;;19.30;54.30;21.40;93972.00;;;;10464960;28;45215;-64
2022/08/03 03:36:06;;;;;;;1.13;0.75;;;19.30;54.50;21.40;93963.00;;;;10476134;28;45191;-64
2022/08/03 03:41:29;;;;;;;1.38;0.95;;;19.30;54.50;21.40;93969.00;;;;10475781;28;45173;-64
2022/08/03 03:46:49;;;;;;;1.10;0.73;;;19.30;54.60;21.40;93974.00;;;;10473953;28;45130;-63
2022/08/03 03:52:10;;;;;;;1.27;0.90;;;19.30;54.70;21.40;93974.00;;;;10475140;28;45166;-63
2022/08/03 03:57:34;;;;;;;1.10;0.65;;;19.30;54.80;21.40;93979.00;;;;10473123;28;45289;-64
2022/08/03 04:02:55;;;;;;;1.77;0.68;;;19.20;54.90;21.30;93976.00;;;;10461758;28;45225;-64
2022/08/03 04:14:05;;;;;;;0.90;0.80;;;19.20;55.10;21.30;93993.00;;;;10473669;28;45211;-64
2022/08/03 04:19:31;;;;;;;1.00;0.80;;;19.20;55.20;21.30;93988.00;;;;10473351;28;45195;-64
2022/08/03 04:24:58;;;;;;;1.60;0.70;;;19.20;55.20;21.30;93993.00;;;;10489752;28;45351;-64
2022/08/03 04:30:22;;;;;;;0.90;0.75;;;19.20;55.20;21.30;93989.00;;;;10472670;28;45176;-64
2022/08/03 04:35:46;;;;;;;0.90;0.80;;;19.30;55.20;21.30;93993.00;;;;10472606;28;45291;-63
2022/08/03 04:41:08;;;;;;;1.02;0.73;;;19.30;55.20;21.30;93997.00;;;;10472971;28;45203;-64
2022/08/03 04:46:36;;;;;;;1.60;0.90;;;19.20;55.30;21.30;93998.00;;;;10472469;28;45161;-64
2022/08/03 04:51:57;;;;;;;1.30;0.80;;;19.30;55.40;21.30;93996.00;;;;10472310;28;44891;-64
2022/08/03 04:57:18;;;;;;;1.05;0.80;;;19.30;55.50;21.30;93983.00;;;;10471523;28;45493;-64
2022/08/03 05:02:40;;;;;;;1.20;0.80;;;19.30;56.20;21.30;94006.00;;;;10472254;28;45232;-64
2022/08/03 05:08:01;;;;;;;1.17;0.98;;;19.30;55.60;21.30;94003.00;;;;10472102;28;45227;-64
2022/08/03 05:13:21;;;;;;;0.95;0.80;;;19.30;55.80;21.30;93994.00;;;;10471114;28;45483;-64
2022/08/03 05:18:44;;;;;;;1.00;0.73;;;19.30;55.90;21.30;94000.00;;;;10471846;28;45439;-63
2022/08/03 05:24:05;;;;;;;0.80;0.80;;;19.30;56.20;21.30;94009.00;;;;10486817;28;45192;-64
2022/08/03 05:29:26;;;;;;;1.92;1.00;;;19.20;56.20;21.30;94005.00;;;;10470726;28;45233;-64
2022/08/03 05:34:48;;;;;;;1.17;0.90;;;19.20;56.50;21.30;94021.00;;;;10470626;28;45220;-64
2022/08/03 05:40:10;;;;;;;0.90;0.80;;;19.20;56.60;21.30;94026.00;;;;10477211;28;45504;-63
2022/08/03 05:45:31;;;;;;;2.38;0.80;;;19.20;56.80;21.30;94026.00;;;;10470740;28;45145;-64
2022/08/03 05:50:52;;;;;;;0.90;0.70;;;19.20;56.90;21.40;94022.00;;;;10470888;28;45297;-63
2022/08/03 05:56:13;;;;;;;1.05;0.88;;;19.30;56.70;21.40;94019.00;;;;10469965;28;45472;-63
2022/08/03 06:01:34;;;;;;;0.90;0.70;;;19.20;56.70;21.40;94023.00;;;;10470492;28;45304;-64
2022/08/03 06:06:55;;;;;;;1.27;0.90;;;19.30;56.80;21.40;94029.00;;;;10469907;28;45287;-64
2022/08/03 06:12:16;;;;;;;1.75;0.73;;;19.30;56.80;21.40;94004.00;;;;10469866;28;45187;-64
2022/08/03 06:17:46;;;;;;;2.20;0.70;;;19.30;56.70;21.40;94015.00;;;;10468898;28;45232;-64
2022/08/03 06:23:07;;;;;;;0.98;0.70;;;19.30;56.60;21.40;94023.00;;;;10477670;28;45298;-64
2022/08/03 06:28:28;;;;;;;1.23;0.70;;;19.30;56.60;21.40;94020.00;;;;10466597;28;45238;-64
2022/08/03 06:33:49;;;;;;;0.93;0.80;;;19.30;56.60;21.40;94020.00;;;;10469044;28;45284;-64
2022/08/03 06:39:12;;;;;;;1.25;0.70;;;19.30;56.50;21.40;94013.00;;;;10474882;28;45137;-63
2022/08/03 06:44:32;;;;;;;1.10;0.80;;;19.30;56.50;21.40;94028.00;;;;10469397;28;45158;-63
2022/08/03 06:49:53;;;;;;;1.17;0.80;;;19.30;56.50;21.40;94028.00;;;;10468279;28;45140;-63
2022/08/03 06:55:15;;;;;;;1.25;0.60;;;19.30;56.50;21.40;94032.00;;;;10467844;28;45393;-64
2022/08/03 07:00:35;;;;;;;1.23;0.75;;;19.30;56.50;21.40;94017.00;;;;10472275;28;45228;-64
2022/08/03 07:05:56;;;;;;;1.05;0.80;;;19.30;56.50;21.40;94032.00;;;;10477353;28;45207;-64
2022/08/03 07:11:17;;;;;;;0.77;0.70;;;19.30;56.50;21.50;94042.00;;;;10468930;28;45238;-64
2022/08/03 07:16:38;;;;;;;1.02;0.80;;;19.30;56.50;21.50;94037.00;;;;10469524;28;45230;-64
2022/08/03 07:21:58;;;;;;;1.75;0.80;;;19.30;56.40;21.50;94039.00;;;;10468013;28;45178;-65
2022/08/03 07:27:21;;;;;;;0.70;0.70;;;19.30;56.40;21.50;94035.00;;;;10473854;28;45482;-65
2022/08/03 07:32:42;;;;;;;0.77;0.60;;;19.30;56.40;21.50;94029.00;;;;10476148;28;45407;-67
2022/08/03 07:38:03;;;;;;;0.65;0.60;;;19.30;56.40;21.50;94038.00;;;;10481235;28;45263;-64
2022/08/03 07:43:25;;;;;;;1.85;0.60;;;19.40;56.50;21.60;94036.00;;;;10474132;28;45272;-63
2022/08/03 07:48:46;;;;;;;0.75;0.60;;;19.40;56.20;21.60;94039.00;;;;10474394;28;45149;-64
2022/08/03 07:54:08;;;;;;;1.45;0.70;;;19.40;56.30;21.70;94036.00;;;;10473931;28;45188;-63
2022/08/03 07:59:30;;;;;;;0.98;0.50;;;19.50;57.10;21.60;94038.00;;;;10473749;28;45402;-64
2022/08/03 08:04:51;;;;;;;2.90;1.17;;;19.50;57.30;21.70;94049.00;;;;10489195;28;45243;-64
2022/08/03 08:10:11;;;;;;;6.90;2.50;;;19.50;57.50;21.70;94030.00;;;;10473984;28;45159;-64
2022/08/03 08:15:33;;;;;;;9.95;3.22;;;19.50;57.40;21.70;94037.00;;;;10473302;28;45214;-64
2022/08/03 08:20:54;;;;;;;11.27;3.60;;;19.50;57.40;21.70;94044.00;;;;10473677;28;45189;-64
2022/08/03 08:26:14;;;;;;;14.20;3.90;;;19.60;57.50;21.70;94048.00;;;;10472708;28;45211;-64
2022/08/03 08:31:36;;;;;;;10.13;3.67;;;19.60;57.50;21.80;94052.00;;;;10472627;28;45240;-64
2022/08/03 08:36:57;;;;;;;11.63;3.72;;;19.60;57.50;21.80;94047.00;;;;10476646;28;45486;-65
2022/08/03 08:42:18;;;;;;;11.43;3.70;;;19.60;57.00;21.70;94044.00;;;;10482399;28;45307;-64
2022/08/03 08:47:44;;;;;;;15.98;3.83;;;19.60;57.10;21.70;94047.00;;;;10471208;28;45132;-64
2022/08/03 08:53:09;;;;;;;9.77;3.47;;;19.50;57.20;21.70;94046.00;;;;10472496;28;45215;-64
2022/08/03 08:58:35;;;;;;;9.13;3.40;;;19.50;57.20;21.70;94038.00;;;;10472196;28;45265;-64
2022/08/03 09:03:57;;;;;;;6.77;2.77;;;19.50;57.00;21.70;94048.00;;;;10472044;28;45215;-65
2022/08/03 09:09:17;;;;;;;6.38;2.63;;;19.60;57.10;21.70;94053.00;;;;10472270;28;45253;-64
2022/08/03 09:14:38;;;;;;;7.13;2.72;;;19.50;57.20;21.70;94046.00;;;;10471581;28;45227;-64
2022/08/03 09:20:08;;;;;;;6.10;2.38;;;19.50;57.20;21.60;94031.00;;;;10472125;28;45537;-64
2022/08/03 09:25:34;;;;;;;7.57;2.70;;;19.50;57.20;21.70;94041.00;;;;10471284;28;45286;-64
2022/08/03 09:30:59;;;;;;;4.63;1.73;;;19.50;57.20;21.80;94045.00;;;;10471994;28;45386;-64
2022/08/03 09:36:42;;;;;;;5.30;1.40;;;19.60;56.90;21.80;94038.00;;;;10474508;28;45187;-64
2022/08/03 09:42:08;;;;;;;3.78;1.75;;;19.60;56.80;21.80;94039.00;;;;10484766;28;45324;-64
2022/08/03 09:47:30;;;;;;;3.13;1.23;;;19.60;56.80;21.80;94039.00;;;;10470176;28;45197;-64
2022/08/03 09:52:53;;;;;;;5.03;1.63;;;19.60;56.80;21.70;94052.00;;;;10468918;28;45242;-64
2022/08/03 09:58:14;;;;;;;3.20;1.58;;;19.60;56.90;21.70;94048.00;;;;10468940;28;45276;-64
2022/08/03 10:03:38;;;;;;;3.58;1.45;;;19.60;57.00;21.70;94034.00;;;;10462780;28;45188;-65
2022/08/03 10:09:08;;;;;;;3.00;1.00;;;19.60;57.10;21.70;94030.00;;;;10469970;28;45164;-63
2022/08/03 10:14:31;;;;;;;3.63;1.45;;;19.60;56.90;21.70;94038.00;;;;10469748;28;45315;-64
2022/08/03 10:19:51;;;;;;;2.58;1.20;;;19.50;56.90;21.80;94039.00;;;;10469189;28;45231;-64
2022/08/03 10:25:16;;;;;;;3.67;1.52;;;19.60;56.70;21.80;94029.00;;;;10467208;28;45274;-63
2022/08/03 10:30:41;;;;;;;2.85;1.30;;;19.60;56.60;21.80;94028.00;;;;10467712;28;45267;-63
2022/08/03 10:36:02;;;;;;;3.65;1.10;;;19.70;56.60;21.80;94022.00;;;;10465253;28;45365;-63
2022/08/03 10:41:31;;;;;;;2.45;1.30;;;19.70;56.50;21.80;94010.00;;;;10486576;28;45282;-64
2022/08/03 10:46:53;;;;;;;3.33;1.25;;;19.70;56.60;21.80;94001.00;;;;10458295;28;45489;-63
2022/08/03 10:52:13;;;;;;;2.15;1.00;;;19.70;56.60;21.80;94010.00;;;;10469223;28;45156;-63
2022/08/03 10:57:51;;;;;;;3.92;1.10;;;19.50;57.30;21.90;94008.00;;;;10467943;28;45212;-63
2022/08/03 11:03:13;;;;;;;2.20;1.08;;;19.70;56.80;21.80;93986.00;;;;10465519;28;45206;-63
2022/08/03 11:08:34;;;;;;;2.42;1.17;;;19.70;56.80;21.90;93996.00;;;;10476906;28;45544;-63
2022/08/03 11:14:03;;;;;;;2.47;1.00;;;19.70;56.80;21.90;93982.00;;;;10476075;28;45664;-63
2022/08/03 11:19:43;;;;;;;3.42;1.10;;;19.70;56.80;21.90;93990.00;;;;10464680;28;45169;-63
2022/08/03 11:25:05;;;;;;;1.55;0.80;;;19.70;56.80;21.90;93984.00;;;;10475734;28;45229;-63
2022/08/03 11:30:28;;;;;;;2.72;1.10;;;19.70;56.70;21.90;93966.00;;;;10475866;28;45251;-63
2022/08/03 11:36:00;;;;;;;1.58;0.80;;;19.80;56.80;21.90;93976.00;;;;10474804;28;45204;-63
2022/08/03 11:41:33;;;;;;;2.38;1.00;;;19.70;56.80;21.90;93979.00;;;;10490590;28;45450;-63
2022/08/03 11:46:55;;;;;;;1.70;0.93;;;19.70;56.70;21.90;93977.00;;;;10464632;28;45291;-63
2022/08/03 11:52:17;;;;;;;1.30;0.80;;;19.70;56.70;21.90;93971.00;;;;10475535;28;45438;-63
2022/08/03 11:57:37;;;;;;;2.35;0.75;;;19.70;57.40;21.90;93963.00;;;;10473496;28;45505;-63
2022/08/03 12:03:06;;;;;;;1.73;1.02;;;19.80;56.80;21.90;93969.00;;;;10474175;28;45495;-64
2022/08/03 12:08:33;;;;;;;2.00;0.80;;;19.80;56.80;21.90;93963.00;;;;10474423;28;45224;-64
2022/08/03 12:13:53;;;;;;;1.45;0.80;;;19.80;56.80;21.90;93969.00;;;;10472619;28;45153;-64
2022/08/03 12:19:15;;;;;;;1.25;0.80;;;19.80;56.80;21.90;93952.00;;;;10473373;28;45241;-63
2022/08/03 12:24:44;;;;;;;2.25;0.80;;;19.80;56.70;21.90;93952.00;;;;10473161;28;45233;-64
2022/08/03 12:30:06;;;;;;;1.42;0.80;;;19.80;56.70;22.00;93963.00;;;;10473922;28;45343;-63
2022/08/03 12:35:28;;;;;;;1.52;0.88;;;19.80;56.80;22.00;93958.00;;;;10461367;28;45211;-63
2022/08/03 12:41:00;;;;;;;1.45;0.80;;;19.80;56.70;21.90;93945.00;;;;10492613;28;45508;-63
2022/08/03 12:46:21;;;;;;;1.40;0.75;;;19.80;56.60;22.00;93945.00;;;;10473989;28;45500;-63
2022/08/03 12:51:59;;;;;;;1.60;0.80;;;19.80;56.70;22.00;93946.00;;;;10462217;28;45371;-63
2022/08/03 12:57:19;;;;;;;1.05;0.65;;;19.80;56.70;22.00;93947.00;;;;10472221;28;45317;-63
2022/08/03 13:02:40;;;;;;;0.68;0.60;;;19.80;56.60;22.00;93927.00;;;;10472500;28;45364;-64
2022/08/03 13:08:02;;;;;;;0.85;0.60;;;19.80;56.80;22.00;93941.00;;;;10471865;28;45279;-64
2022/08/03 13:13:40;;;;;;;1.02;0.70;;;19.80;56.60;22.00;93940.00;;;;10471703;28;45148;-64
2022/08/03 13:19:01;;;;;;;1.48;0.80;;;19.80;56.50;22.00;93924.00;;;;10470910;28;45176;-64
2022/08/03 13:24:23;;;;;;;2.00;0.90;;;19.80;56.60;22.00;93932.00;;;;10471331;28;45243;-64
2022/08/03 13:29:44;;;;;;;1.00;0.70;;;19.80;56.50;22.00;93936.00;;;;10471524;28;45247;-64
2022/08/03 13:35:05;;;;;;;1.30;0.65;;;19.80;56.50;22.00;93933.00;;;;10471641;28;45447;-65
2022/08/03 13:40:30;;;;;;;0.88;0.55;;;19.80;56.50;22.00;93919.00;;;;10486963;28;45104;-64
2022/08/03 13:45:50;;;;;;;1.35;0.60;;;19.80;56.50;22.00;93913.00;;;;10474061;28;45291;-64
2022/08/03 13:51:10;;;;;;;1.20;0.70;;;19.80;56.40;22.00;93925.00;;;;10470402;28;45259;-64
2022/08/03 13:56:33;;;;;;;0.93;0.50;;;19.90;56.50;22.00;93904.00;;;;10469598;28;45166;-63
2022/08/03 14:01:54;;;;;;;1.42;0.80;;;19.90;56.40;22.00;93919.00;;;;10470381;28;45286;-63
2022/08/03 14:07:14;;;;;;;0.85;0.55;;;19.80;56.50;22.00;93896.00;;;;10470191;28;45184;-63
2022/08/03 14:12:36;;;;;;;0.90;0.57;;;19.90;56.50;22.00;93893.00;;;;10469802;28;45204;-63
2022/08/03 14:17:57;;;;;;;0.93;0.50;;;19.90;56.40;22.00;93896.00;;;;10469669;28;45375;-64
2022/08/03 14:23:18;;;;;;;0.82;0.50;;;19.90;56.30;22.00;93896.00;;;;10473460;28;45241;-64
2022/08/03 14:28:41;;;;;;;1.05;0.63;;;19.90;56.30;22.10;93889.00;;;;10470392;28;45325;-63
2022/08/03 14:34:01;;;;;;;0.60;0.50;;;19.90;56.40;22.10;93881.00;;;;10474835;28;45532;-64
2022/08/03 14:39:22;;;;;;;1.67;0.50;;;19.90;56.20;22.10;93893.00;;;;10470277;28;45179;-63
2022/08/03 14:44:44;;;;;;;0.80;0.57;;;19.90;56.30;22.10;93892.00;;;;10475981;28;45701;-63
2022/08/03 14:50:05;;;;;;;0.70;0.45;;;19.90;56.20;22.10;93871.00;;;;10464156;28;45184;-64
2022/08/03 14:55:26;;;;;;;1.33;0.52;;;20.00;56.20;22.10;93880.00;;;;10473447;28;45204;-65
2022/08/03 15:00:48;;;;;;;1.73;0.50;;;20.00;56.10;22.10;93872.00;;;;10474877;28;45252;-64
2022/08/03 15:06:09;;;;;;;1.08;0.52;;;20.00;56.20;22.10;93872.00;;;;10474691;28;45175;-66
2022/08/03 15:11:30;;;;;;;3.40;1.00;;;20.00;56.10;22.10;93861.00;;;;10471974;28;45327;-65
2022/08/03 15:16:52;;;;;;;5.03;2.03;;;20.00;55.90;22.20;93859.00;;;;10466690;28;45307;-62
2022/08/03 15:22:14;;;;;;;7.07;4.03;;;20.00;56.10;22.10;93858.00;;;;10472680;28;45424;-65
2022/08/03 15:27:34;;;;;;;7.47;3.28;;;20.00;56.00;22.10;93867.00;;;;10470823;28;45198;-66
2022/08/03 15:32:56;;;;;;;8.55;3.20;;;20.00;56.10;22.10;93853.00;;;;10474570;28;45192;-63
2022/08/03 15:38:17;;;;;;;7.28;2.90;;;20.00;56.20;22.10;93845.00;;;;10471745;28;45154;-63
2022/08/03 15:43:38;;;;;;;5.80;2.70;;;20.00;56.30;22.10;93839.00;;;;10474340;28;45183;-63
2022/08/03 15:48:59;;;;;;;5.15;2.30;;;19.90;56.30;22.10;93833.00;;;;10477404;28;45296;-63
2022/08/03 15:54:20;;;;;;;3.28;2.10;;;19.90;56.20;22.00;93847.00;;;;10476485;28;45435;-63
2022/08/03 15:59:41;;;;;;;3.80;2.00;;;19.90;56.20;22.10;93824.00;;;;10463076;28;45277;-64
2022/08/03 16:05:03;;;;;;;4.10;1.80;;;20.00;56.00;22.10;93831.00;;;;10473312;28;45525;-64
2022/08/03 16:10:23;;;;;;;4.85;1.90;;;20.00;56.10;22.00;93825.00;;;;10473386;28;45169;-64
2022/08/03 16:15:44;;;;;;;3.72;1.55;;;19.90;56.20;22.10;93817.00;;;;10446821;28;45501;-63
2022/08/03 16:21:06;;;;;;;2.33;1.85;;;19.90;56.30;22.10;93820.00;;;;10487218;28;45291;-64
2022/08/03 16:26:27;;;;;;;5.18;1.50;;;19.90;56.20;22.10;93822.00;;;;10475484;28;45267;-64
2022/08/03 16:31:48;;;;;;;2.72;1.55;;;19.90;56.30;22.10;93825.00;;;;10471335;28;45205;-64
2022/08/03 16:37:10;;;;;;;1.98;1.40;;;19.90;56.10;22.10;93822.00;;;;10469061;28;45217;-64
2022/08/03 16:42:30;;;;;;;2.53;1.13;;;19.90;56.00;22.00;93830.00;;;;10473226;28;45325;-64
2022/08/03 16:47:51;;;;;;;2.08;1.20;;;19.90;55.80;22.00;93809.00;;;;10472510;28;45309;-64
2022/08/03 16:53:14;;;;;;;2.70;1.27;;;19.90;55.60;22.00;93810.00;;;;10472768;28;45220;-64
2022/08/03 16:58:34;;;;;;;2.95;0.88;;;19.90;55.50;22.00;93821.00;;;;10471165;28;45192;-64
2022/08/03 17:03:58;;;;;;;1.75;0.98;;;19.90;55.30;22.10;93829.00;;;;10471531;28;45184;-64
2022/08/03 17:09:21;;;;;;;1.63;1.00;;;19.90;55.20;22.10;93819.00;;;;10472301;28;45287;-64
2022/08/03 17:14:42;;;;;;;1.42;0.95;;;19.90;55.10;22.10;93829.00;;;;10472006;28;45378;-64
2022/08/03 17:20:09;;;;;;;1.70;1.02;;;19.90;54.60;22.00;93828.00;;;;10483940;28;45300;-65
2022/08/03 17:25:32;;;;;;;1.35;0.90;;;19.90;54.70;22.10;93833.00;;;;10457164;28;45140;-64
2022/08/03 17:36:32;;;;;;;0.77;0.75;;;19.90;54.40;22.00;93814.00;;;;10469280;28;45169;-64
2022/08/03 17:41:59;;;;;;;2.03;0.80;;;19.90;54.30;22.00;93816.00;;;;10458775;28;45206;-65
2022/08/03 17:47:20;;;;;;;0.85;0.70;;;19.80;54.30;22.00;93827.00;;;;10470066;28;45133;-64
2022/08/03 17:52:45;;;;;;;1.70;0.80;;;19.90;54.40;22.00;93831.00;;;;10471280;28;45202;-64
2022/08/03 17:58:14;;;;;;;2.88;0.80;;;19.90;54.40;22.00;93844.00;;;;10469622;28;45159;-64
2022/08/03 18:03:42;;;;;;;1.17;0.80;;;19.90;54.50;22.00;93847.00;;;;10469608;28;45298;-64
2022/08/03 18:09:03;;;;;;;1.00;0.60;;;19.90;54.40;22.00;93844.00;;;;10469576;28;45356;-65
2022/08/03 18:14:36;;;;;;;1.25;0.70;;;19.90;54.60;22.00;93846.00;;;;10470163;28;45322;-64
2022/08/03 18:19:57;;;;;;;1.02;0.70;;;19.90;54.70;22.00;93845.00;;;;10480742;28;45157;-64
2022/08/03 18:25:20;;;;;;;0.95;0.80;;;19.90;54.70;22.00;93847.00;;;;10468198;28;45367;-62
2022/08/03 18:30:43;;;;;;;0.85;0.70;;;19.90;54.60;22.00;93847.00;;;;10458787;28;45285;-65
2022/08/03 18:36:05;;;;;;;0.80;0.70;;;19.90;54.60;22.10;93845.00;;;;10467263;28;45273;-64
2022/08/03 18:41:25;;;;;;;1.27;0.70;;;19.90;54.40;22.10;93851.00;;;;10469107;28;45201;-64
2022/08/03 18:46:59;;;;;;;0.98;0.70;;;20.00;54.50;22.10;93853.00;;;;10468924;28;45187;-64
2022/08/03 18:52:28;;;;;;;0.80;0.60;;;19.90;54.50;22.10;93850.00;;;;10469795;28;45241;-64
2022/08/03 18:57:55;;;;;;;1.13;0.88;;;20.00;54.60;22.10;93853.00;;;;10466443;28;45254;-64
2022/08/03 19:03:24;;;;;;;1.20;0.70;;;19.90;54.50;22.10;93850.00;;;;10468560;28;45219;-64
2022/08/03 19:08:50;;;;;;;1.15;0.70;;;20.00;54.40;22.20;93855.00;;;;10467571;28;45220;-65
2022/08/03 19:14:14;;;;;;;1.00;0.60;;;20.00;54.30;22.20;93841.00;;;;10467650;28;45277;-64
2022/08/03 19:19:36;;;;;;;1.30;0.98;;;20.10;54.10;22.20;93860.00;;;;10477350;27;45279;-64
2022/08/03 19:25:00;;;;;;;1.98;0.93;;;20.10;54.10;22.20;93866.00;;;;10477333;28;45099;-64
2022/08/03 19:30:38;;;;;;;1.52;0.90;;;20.10;54.20;22.30;93859.00;;;;10475865;28;45257;-64
2022/08/03 19:36:00;;;;;;;1.52;0.90;;;20.10;53.90;22.20;93858.00;;;;10474208;28;45216;-64
2022/08/03 19:41:21;;;;;;;1.17;1.00;;;20.10;54.00;22.30;93868.00;;;;10475007;28;45280;-64
2022/08/03 19:46:49;;;;;;;1.10;0.80;;;20.10;54.10;22.30;93869.00;;;;10474112;28;45180;-64
2022/08/03 19:52:14;;;;;;;1.27;0.85;;;20.10;54.10;22.30;93870.00;;;;10475281;28;45258;-64
2022/08/03 19:57:37;;;;;;;1.45;1.00;;;20.10;53.70;22.30;93874.00;;;;10473533;28;45181;-64
2022/08/03 20:02:58;;;;;;;1.77;1.10;;;20.10;53.50;22.30;93880.00;;;;10474009;28;45176;-64
2022/08/03 20:08:20;;;;;;;1.48;0.90;;;20.10;53.40;22.30;93880.00;;;;10469384;28;45172;-64
2022/08/03 20:13:44;;;;;;;1.00;0.90;;;20.10;53.40;22.30;93877.00;;;;10473129;28;45281;-64
2022/08/03 20:19:05;;;;;;;1.42;0.77;;;20.10;53.40;22.30;93867.00;;;;10473623;28;45407;-64
2022/08/03 20:24:31;;;;;;;1.42;1.05;;;20.20;53.40;22.30;93882.00;;;;10484797;28;45219;-64
2022/08/03 20:29:51;;;;;;;1.42;1.00;;;20.10;53.40;22.30;93883.00;;;;10476458;28;45185;-64
2022/08/03 20:35:12;;;;;;;1.42;1.00;;;20.10;53.50;22.30;93894.00;;;;10471714;28;45342;-64
2022/08/03 20:40:34;;;;;;;1.35;1.00;;;20.10;53.50;22.30;93899.00;;;;10472289;28;45210;-64
2022/08/03 20:45:56;;;;;;;1.38;1.00;;;20.10;53.50;22.20;93895.00;;;;10472796;28;45262;-64
2022/08/03 20:51:18;;;;;;;1.35;0.90;;;20.10;53.60;22.20;93891.00;;;;10473871;28;45142;-63
2022/08/03 20:56:40;;;;;;;1.73;0.98;;;20.00;53.70;22.20;93884.00;;;;10476863;28;45145;-63
2022/08/03 21:02:01;;;;;;;1.80;1.08;;;20.10;53.70;22.30;93873.00;;;;10478476;28;45479;-64
2022/08/03 21:07:24;;;;;;;1.30;0.95;;;20.10;53.60;22.30;93883.00;;;;10477765;28;45130;-63
2022/08/03 21:12:52;;;;;;;1.38;0.90;;;20.10;53.40;22.30;93893.00;;;;10465184;28;45551;-64
2022/08/03 21:18:14;;;;;;;1.52;1.00;;;20.10;53.30;22.30;93876.00;;;;10477753;28;45541;-64
2022/08/03 21:23:38;;;;;;;1.33;0.93;;;20.10;53.30;22.30;93881.00;;;;10498930;28;45168;-64
2022/08/03 21:29:01;;;;;;;1.63;1.10;;;20.10;53.30;22.30;93882.00;;;;10465273;28;45160;-64
2022/08/03 21:34:22;;;;;;;0.85;0.80;;;20.10;53.00;22.20;93881.00;;;;10476267;28;45249;-64
2022/08/03 21:39:44;;;;;;;1.20;0.90;;;20.10;53.00;22.20;93875.00;;;;10476395;28;45212;-63
2022/08/03 21:45:11;;;;;;;1.10;0.95;;;20.00;52.80;22.20;93875.00;;;;10463445;28;45353;-64
2022/08/03 21:50:34;;;;;;;1.10;0.80;;;20.00;52.80;22.20;93869.00;;;;10476492;28;45403;-64
2022/08/03 21:55:57;;;;;;;1.15;0.80;;;20.00;52.70;22.20;93861.00;;;;10474850;28;45290;-63
2022/08/03 22:01:23;;;;;;;1.00;0.90;;;20.00;52.80;22.20;93878.00;;;;10464332;28;45128;-64
2022/08/03 22:06:44;;;;;;;2.03;1.00;;;20.00;52.60;22.20;93861.00;;;;10474917;28;45294;-64
2022/08/03 22:12:06;;;;;;;1.45;0.88;;;20.00;52.60;22.20;93871.00;;;;10476057;28;45243;-65
2022/08/03 22:17:30;;;;;;;1.38;0.80;;;20.00;52.80;22.20;93891.00;;;;10462901;28;45188;-64
2022/08/03 22:22:55;;;;;;;1.25;0.90;;;20.00;52.70;22.10;93875.00;;;;10487032;28;45223;-64
2022/08/03 22:28:16;;;;;;;1.10;0.90;;;20.00;52.70;22.10;93881.00;;;;10468650;28;45180;-63
2022/08/03 22:33:38;;;;;;;1.33;0.90;;;20.00;52.50;22.20;93888.00;;;;10469356;28;45326;-63
2022/08/03 22:38:59;;;;;;;1.00;0.80;;;20.00;52.60;22.10;93889.00;;;;10468530;28;45259;-64
2022/08/03 22:44:21;;;;;;;0.70;0.70;;;20.00;52.50;22.10;93887.00;;;;10469315;28;45399;-63
2022/08/03 22:49:44;;;;;;;1.15;0.90;;;19.90;52.50;22.10;93886.00;;;;10468399;28;45251;-63
2022/08/03 22:55:08;;;;;;;0.82;0.70;;;20.00;52.60;22.10;93889.00;;;;10468884;28;45291;-63
2022/08/03 23:00:29;;;;;;;0.95;0.80;;;20.00;52.50;22.10;93890.00;;;;10476245;28;45463;-64
2022/08/03 23:05:53;;;;;;;1.85;0.70;;;19.90;52.50;22.10;93880.00;;;;10474766;28;45236;-64
2022/08/03 23:11:17;;;;;;;1.33;0.90;;;19.90;52.40;22.10;93875.00;;;;10475844;28;45202;-64
2022/08/03 23:16:40;;;;;;;1.40;0.77;;;19.90;52.50;22.10;93890.00;;;;10475597;28;45082;-64
2022/08/03 23:22:03;;;;;;;1.10;0.80;;;19.90;52.40;22.10;93881.00;;;;10481847;28;45232;-64
2022/08/03 23:27:24;;;;;;;2.45;1.05;;;19.90;52.50;22.10;93887.00;;;;10472662;28;45204;-63
2022/08/03 23:32:47;;;;;;;1.50;0.80;;;19.90;52.50;22.10;93885.00;;;;10475140;28;45206;-64
2022/08/03 23:38:12;;;;;;;1.10;0.80;;;19.90;52.50;22.10;93892.00;;;;10474686;28;45294;-64
2022/08/03 23:43:37;;;;;;;1.10;0.90;;;19.90;52.40;22.10;93891.00;;;;10474416;28;45255;-64
2022/08/03 23:48:59;;;;;;;1.60;1.02;;;19.90;52.50;22.00;93890.00;;;;10474142;28;45275;-63